Time;durP1;ratioP1;P1;durP2;ratioP2;P2;SDS_P1;SDS_P2;PMS_P1;PMS_P2;Temp;Humidity;BMP_temperature;BMP_pressure;BME280_temperature;BME280_humidity;BME280_pressure;Samples;Min_cycle;Max_cycle;Signal;HPM_P1;HPM_P2
2022/03/12 00:00:52;;;;;;;3.70;2.57;;;-0.30;57.70;;;;;;4955824;28;20429;-77
2022/03/12 00:03:18;;;;;;;20.13;2.93;;;-0.40;58.10;;;;;;4973484;28;20780;-77
2022/03/12 00:05:58;;;;;;;6.03;4.30;;;-0.30;57.90;;;;;;4973370;28;20178;-77
2022/03/12 00:08:29;;;;;;;3.27;1.97;;;-0.40;58.70;;;;;;4973137;28;20174;-77
2022/03/12 00:10:55;;;;;;;2.20;1.93;;;-0.50;59.00;;;;;;4973108;28;20460;-77
2022/03/12 00:13:21;;;;;;;5.63;2.87;;;-0.30;58.40;;;;;;4955813;28;20421;-77
2022/03/12 00:15:50;;;;;;;3.80;2.37;;;-0.20;58.20;;;;;;4955895;28;20426;-77
2022/03/12 00:18:19;;;;;;;3.63;2.40;;;-0.40;59.00;;;;;;4972934;28;20170;-77
2022/03/12 00:20:47;;;;;;;4.47;2.50;;;-0.40;59.30;;;;;;4955643;28;20927;-77
2022/03/12 00:23:16;;;;;;;4.13;2.63;;;-0.50;59.90;;;;;;4955740;28;20417;-76
2022/03/12 00:25:42;;;;;;;13.70;2.90;;;-0.60;60.20;;;;;;4955747;28;20441;-77
2022/03/12 00:28:08;;;;;;;5.70;3.10;;;-0.70;60.60;;;;;;4972911;28;20963;-77
2022/03/12 00:30:35;;;;;;;3.77;2.30;;;-0.70;60.90;;;;;;4976609;28;20524;-76
2022/03/12 00:33:01;;;;;;;4.63;2.30;;;-0.80;61.00;;;;;;4959550;28;20275;-77
2022/03/12 00:35:26;;;;;;;3.70;2.57;;;-0.70;61.00;;;;;;4959413;28;20493;-77
2022/03/12 00:37:52;;;;;;;3.97;2.47;;;-0.70;61.00;;;;;;4976664;28;20183;-77
2022/03/12 00:40:20;;;;;;;7.13;3.00;;;-0.70;61.60;;;;;;4976911;28;20174;-76
2022/03/12 00:42:45;;;;;;;4.27;2.67;;;-0.70;61.50;;;;;;4959488;28;20185;-76
2022/03/12 00:45:11;;;;;;;4.13;2.40;;;-0.80;62.30;;;;;;4976637;28;20414;-76
2022/03/12 00:47:37;;;;;;;3.23;2.00;;;-0.90;62.30;;;;;;4976398;28;20181;-77
2022/03/12 00:50:04;;;;;;;3.03;2.13;;;-0.70;62.00;;;;;;4976478;28;21016;-77
2022/03/12 00:52:30;;;;;;;3.50;2.90;;;-0.70;62.00;;;;;;4976545;28;20201;-76
2022/03/12 00:54:55;;;;;;;3.90;2.50;;;-0.70;62.00;;;;;;4976325;28;20461;-77
2022/03/12 00:57:21;;;;;;;6.50;2.30;;;-0.70;62.00;;;;;;4959158;28;20680;-77
2022/03/12 00:59:46;;;;;;;4.13;2.20;;;-0.60;61.50;;;;;;4958841;28;20170;-77
2022/03/12 05:00:29;;;;;;;3.80;2.00;;;-1.50;65.20;;;;;;5942726;23;20381;-77
2022/03/12 05:03:08;;;;;;;3.40;1.97;;;-1.40;64.50;;;;;;4917393;29;20757;-76
2022/03/12 05:05:39;;;;;;;4.50;2.93;;;-1.40;64.60;;;;;;4934260;29;20411;-75
2022/03/12 05:08:10;;;;;;;3.20;2.40;;;-1.50;65.10;;;;;;4916725;29;20913;-75
2022/03/12 05:10:36;;;;;;;3.27;2.10;;;-1.50;65.30;;;;;;4934149;29;20427;-75
2022/03/12 05:13:02;;;;;;;4.33;2.50;;;-1.50;65.30;;;;;;4934076;29;20467;-75
2022/03/12 05:15:36;;;;;;;2.60;2.13;;;-1.50;65.30;;;;;;4919945;29;20467;-77
2022/03/12 05:18:06;;;;;;;3.33;2.00;;;-1.50;65.30;;;;;;4937724;29;20426;-76
2022/03/12 06:09:12;;;;;;;4.60;2.87;;;0.70;58.80;;;;;;5955521;23;20445;-78
2022/03/12 06:11:38;;;;;;;4.77;2.77;;;0.80;59.20;;;;;;4918840;29;20445;-78
2022/03/12 06:14:04;;;;;;;4.00;2.83;;;0.80;59.50;;;;;;4919492;29;20550;-77
2022/03/12 06:16:31;;;;;;;2.73;1.80;;;1.00;59.30;;;;;;4919359;29;20259;-78
2022/03/12 06:18:57;;;;;;;4.67;2.90;;;1.20;58.60;;;;;;4936126;29;20463;-78
2022/03/12 06:21:22;;;;;;;4.90;2.83;;;1.10;59.60;;;;;;4936288;29;20432;-77
2022/03/12 06:23:49;;;;;;;5.30;2.63;;;1.50;58.40;;;;;;4936475;29;20172;-78
2022/03/12 06:26:16;;;;;;;3.30;2.73;;;1.50;58.20;;;;;;4919176;29;20318;-78
2022/03/12 06:28:43;;;;;;;2.80;2.13;;;1.70;58.10;;;;;;4918706;29;20413;-78
2022/03/12 06:31:12;;;;;;;4.20;2.90;;;2.00;57.00;;;;;;4936198;29;20510;-77
2022/03/12 06:33:38;;;;;;;2.77;2.07;;;1.90;57.60;;;;;;4936856;29;20812;-78
2022/03/12 06:36:08;;;;;;;4.40;3.10;;;1.70;57.70;;;;;;4936263;29;20411;-78
2022/03/12 06:38:34;;;;;;;3.13;2.17;;;2.20;57.90;;;;;;4918446;29;20776;-78
2022/03/12 06:40:59;;;;;;;5.67;3.53;;;2.50;56.70;;;;;;4936146;29;20428;-79
2022/03/12 06:43:28;;;;;;;5.00;2.80;;;2.60;55.70;;;;;;4918912;29;20839;-78
2022/03/12 06:45:58;;;;;;;5.27;3.23;;;2.80;55.90;;;;;;4935994;29;20182;-79
2022/03/12 06:48:24;;;;;;;4.80;2.87;;;3.20;55.60;;;;;;4918324;29;20555;-78
2022/03/12 06:50:50;;;;;;;2.77;2.23;;;3.30;55.10;;;;;;4936165;29;20435;-78
2022/03/12 06:53:15;;;;;;;4.00;3.00;;;2.90;55.40;;;;;;4935950;29;20418;-78
2022/03/12 06:55:42;;;;;;;3.80;2.80;;;3.40;55.40;;;;;;4935878;29;20230;-78
2022/03/12 06:58:07;;;;;;;3.80;3.00;;;3.80;55.00;;;;;;4918422;29;20271;-79
2022/03/12 07:00:33;;;;;;;3.50;2.40;;;3.70;54.80;;;;;;4935931;29;20968;-78
2022/03/12 07:02:59;;;;;;;6.10;2.37;;;3.60;54.60;;;;;;4909729;29;20180;-77
2022/03/12 07:05:25;;;;;;;6.93;2.90;;;3.50;54.60;;;;;;4916955;29;20187;-76
2022/03/12 07:07:52;;;;;;;3.80;2.77;;;3.80;54.90;;;;;;4916508;29;20456;-77
2022/03/12 07:10:17;;;;;;;3.33;2.33;;;3.60;54.80;;;;;;4899538;29;20538;-79
2022/03/12 07:12:44;;;;;;;3.80;2.70;;;3.40;54.70;;;;;;4916605;29;20448;-79
2022/03/12 07:15:10;;;;;;;3.00;2.37;;;3.60;54.80;;;;;;4917002;29;20239;-78
2022/03/12 07:17:36;;;;;;;4.67;2.40;;;3.80;55.00;;;;;;4917231;29;20425;-79
2022/03/12 07:20:05;;;;;;;3.47;2.07;;;4.20;54.50;;;;;;4917789;29;20500;-80
2022/03/12 07:22:32;;;;;;;4.00;2.80;;;4.20;53.80;;;;;;4917272;29;20185;-77
2022/03/12 07:24:58;;;;;;;5.00;2.93;;;4.00;53.20;;;;;;4903333;29;20820;-76
2022/03/12 07:27:24;;;;;;;4.20;2.77;;;4.30;53.90;;;;;;4903777;29;20423;-78
2022/03/12 07:29:51;;;;;;;3.80;2.80;;;4.80;52.60;;;;;;4899803;29;20444;-79
2022/03/12 07:32:16;;;;;;;5.43;3.27;;;5.50;52.50;;;;;;4917663;29;20834;-79
2022/03/12 07:34:43;;;;;;;4.30;3.07;;;5.70;51.20;;;;;;4916542;29;20444;-79
2022/03/12 07:37:11;;;;;;;4.77;3.27;;;5.90;51.50;;;;;;4901264;29;20188;-79
2022/03/12 07:39:37;;;;;;;5.53;2.73;;;5.10;51.40;;;;;;4898798;29;20890;-77
2022/03/12 07:42:03;;;;;;;2.70;2.07;;;5.30;51.50;;;;;;4899094;29;20437;-78
2022/03/12 07:44:29;;;;;;;4.30;3.17;;;4.60;50.10;;;;;;4916471;29;20421;-78
2022/03/12 07:46:55;;;;;;;2.90;2.40;;;5.10;51.50;;;;;;4915501;29;20432;-77
2022/03/12 07:49:20;;;;;;;2.70;2.30;;;5.30;51.40;;;;;;4898442;29;21013;-77
2022/03/12 07:51:47;;;;;;;7.33;3.40;;;4.90;52.30;;;;;;4917115;29;20666;-78
2022/03/12 07:54:15;;;;;;;3.80;2.90;;;4.70;52.90;;;;;;4900723;29;20211;-78
2022/03/12 07:56:40;;;;;;;6.43;3.37;;;4.20;53.20;;;;;;4916848;29;20945;-77
2022/03/12 07:59:06;;;;;;;5.93;3.13;;;3.60;53.90;;;;;;4916573;29;20409;-77
2022/03/12 08:01:33;;;;;;;7.23;4.53;;;3.20;55.60;;;;;;4899023;29;20196;-75
2022/03/12 08:04:01;;;;;;;18.87;7.30;;;2.90;55.60;;;;;;4898869;29;20267;-77
2022/03/12 08:06:27;;;;;;;6.77;4.17;;;2.90;55.90;;;;;;4915581;29;20412;-75
2022/03/12 08:08:53;;;;;;;27.87;10.37;;;2.50;56.60;;;;;;4915857;29;20960;-75
2022/03/12 08:11:25;;;;;;;15.10;4.00;;;2.40;56.20;;;;;;4934294;29;20507;-75
2022/03/12 08:14:00;;;;;;;9.37;4.60;;;2.30;56.60;;;;;;4934296;29;20180;-74
2022/03/12 08:16:26;;;;;;;8.30;3.47;;;2.30;56.80;;;;;;4933360;29;20392;-73
2022/03/12 08:18:51;;;;;;;4.70;2.80;;;2.50;57.00;;;;;;4933574;29;20419;-73
2022/03/12 08:21:17;;;;;;;7.03;3.73;;;2.70;56.80;;;;;;4917543;29;20443;-74
2022/03/12 08:23:43;;;;;;;7.80;4.90;;;2.50;56.50;;;;;;4934817;29;20176;-75
2022/03/12 08:26:08;;;;;;;8.67;2.80;;;2.70;58.00;;;;;;4934856;29;20174;-77
2022/03/12 08:28:37;;;;;;;7.93;3.07;;;2.70;57.10;;;;;;4934609;29;20267;-75
2022/03/12 08:31:04;;;;;;;5.70;3.20;;;2.60;56.90;;;;;;4934544;29;20196;-73
2022/03/12 08:33:30;;;;;;;6.83;3.30;;;2.60;57.30;;;;;;4934541;29;20460;-73
2022/03/12 08:35:56;;;;;;;6.33;3.90;;;2.70;57.20;;;;;;4934495;29;20467;-74
2022/03/12 08:38:22;;;;;;;12.03;2.57;;;2.90;56.40;;;;;;4926055;29;20659;-74
2022/03/12 08:40:48;;;;;;;5.90;2.93;;;2.80;56.20;;;;;;4924603;29;20930;-73
2022/03/12 08:43:14;;;;;;;8.40;3.73;;;2.90;56.40;;;;;;4922153;29;20506;-74
2022/03/12 08:45:39;;;;;;;9.70;3.10;;;3.10;56.00;;;;;;4922767;29;20298;-74
2022/03/12 08:48:05;;;;;;;6.20;2.90;;;3.10;55.10;;;;;;4933709;29;20184;-75
2022/03/12 08:50:32;;;;;;;4.47;3.07;;;3.20;53.30;;;;;;4936166;29;20195;-73
2022/03/12 08:52:58;;;;;;;4.37;2.70;;;3.30;54.70;;;;;;4938060;29;20183;-75
2022/03/12 08:55:24;;;;;;;8.20;3.03;;;3.30;55.90;;;;;;4938029;29;20486;-75
2022/03/12 08:57:51;;;;;;;4.87;2.83;;;3.60;52.90;;;;;;4937796;29;20434;-75
2022/03/12 09:00:18;;;;;;;6.00;3.23;;;4.30;50.70;;;;;;4920780;29;20418;-75
2022/03/12 09:02:44;;;;;;;6.57;3.80;;;5.10;51.80;;;;;;4937941;29;20411;-75
2022/03/12 09:05:12;;;;;;;3.80;2.10;;;5.80;51.70;;;;;;4937754;29;20955;-76
2022/03/12 09:07:38;;;;;;;7.23;3.03;;;5.80;49.00;;;;;;4937577;29;20446;-75
2022/03/12 09:10:05;;;;;;;4.40;2.50;;;6.00;49.10;;;;;;4920543;29;20439;-74
2022/03/12 09:12:31;;;;;;;4.23;2.80;;;6.30;48.60;;;;;;4937604;29;20442;-75
2022/03/12 09:14:57;;;;;;;6.90;2.80;;;6.60;49.10;;;;;;4925417;29;20467;-75
2022/03/12 09:17:23;;;;;;;6.53;2.43;;;6.20;48.20;;;;;;4918716;29;20424;-75
2022/03/12 09:19:48;;;;;;;4.03;2.40;;;6.30;49.00;;;;;;4918081;29;20420;-75
2022/03/12 09:22:14;;;;;;;4.10;3.53;;;6.50;48.70;;;;;;4918191;29;20204;-74
2022/03/12 09:24:40;;;;;;;9.10;3.30;;;6.80;48.40;;;;;;4917686;29;20606;-74
2022/03/12 09:27:07;;;;;;;2.80;2.03;;;6.60;46.60;;;;;;4918428;29;20172;-74
2022/03/12 09:29:33;;;;;;;3.63;2.77;;;7.10;47.30;;;;;;4901199;29;20495;-76
2022/03/12 09:32:00;;;;;;;8.03;5.17;;;7.30;46.00;;;;;;4918078;29;20471;-74
2022/03/12 09:34:26;;;;;;;3.10;2.70;;;7.40;46.00;;;;;;4918023;29;20467;-74
2022/03/12 09:36:51;;;;;;;5.47;3.20;;;7.60;45.50;;;;;;4901299;29;20191;-74
2022/03/12 09:39:17;;;;;;;11.97;5.30;;;7.30;46.30;;;;;;4918026;29;20212;-74
2022/03/12 09:41:43;;;;;;;10.83;5.50;;;6.90;45.60;;;;;;4918084;29;20283;-73
2022/03/12 09:44:09;;;;;;;7.40;4.47;;;7.50;46.10;;;;;;4920326;29;20240;-73
2022/03/12 09:46:35;;;;;;;5.10;3.90;;;8.00;46.90;;;;;;4925541;29;20416;-74
2022/03/12 09:49:01;;;;;;;6.20;2.80;;;8.10;46.10;;;;;;4927830;29;20183;-73
2022/03/12 09:51:29;;;;;;;6.47;3.30;;;8.20;44.70;;;;;;4926594;29;20810;-74
2022/03/12 09:53:55;;;;;;;7.80;3.57;;;7.30;43.90;;;;;;4910870;29;20271;-74
2022/03/12 09:56:21;;;;;;;8.20;3.70;;;7.60;45.50;;;;;;4917914;29;20918;-74
2022/03/12 09:58:47;;;;;;;12.30;5.10;;;7.90;45.40;;;;;;4917684;29;20468;-73
2022/03/12 10:01:12;;;;;;;6.80;2.97;;;8.60;46.30;;;;;;4917410;29;20439;-73
2022/03/12 10:03:38;;;;;;;16.23;6.67;;;8.80;45.80;;;;;;4917696;29;20181;-74
2022/03/12 10:06:05;;;;;;;5.30;2.77;;;8.50;45.40;;;;;;4917945;29;20208;-73
2022/03/12 10:08:31;;;;;;;2.83;2.47;;;7.60;44.60;;;;;;4900461;29;20428;-73
2022/03/12 10:10:56;;;;;;;5.57;2.50;;;7.50;45.50;;;;;;4900566;29;20997;-74
2022/03/12 10:13:22;;;;;;;6.07;3.27;;;7.50;45.20;;;;;;4917659;29;20211;-74
2022/03/12 10:15:47;;;;;;;6.47;3.40;;;7.80;46.10;;;;;;4917527;29;20216;-74
2022/03/12 10:18:13;;;;;;;6.63;3.33;;;8.00;44.80;;;;;;4917422;29;20205;-73
2022/03/12 10:20:39;;;;;;;6.23;3.27;;;7.70;44.90;;;;;;4917499;29;20197;-74
2022/03/12 10:23:05;;;;;;;9.13;2.87;;;7.80;46.30;;;;;;4917444;29;20566;-74
2022/03/12 10:25:32;;;;;;;19.10;4.00;;;;;;;;;;4917371;29;20179;-74
2022/03/12 10:27:58;;;;;;;6.07;3.20;;;7.60;47.20;;;;;;4917596;29;20416;-74
2022/03/12 10:30:23;;;;;;;8.00;3.10;;;8.20;47.10;;;;;;4917275;29;20784;-73
2022/03/12 10:32:50;;;;;;;9.77;4.37;;;7.80;46.10;;;;;;4917360;29;20176;-74
2022/03/12 10:35:19;;;;;;;14.90;3.27;;;8.10;45.60;;;;;;4917244;29;20211;-74
2022/03/12 10:37:47;;;;;;;5.13;3.23;;;8.40;45.30;;;;;;4900098;29;20448;-75
2022/03/12 10:40:20;;;;;;;4.03;2.80;;;8.60;46.50;;;;;;4919610;29;20424;-73
2022/03/12 10:42:52;;;;;;;7.10;3.37;;;8.00;46.60;;;;;;4928579;29;20577;-74
2022/03/12 10:45:21;;;;;;;7.03;3.20;;;8.40;46.80;;;;;;4935954;29;20438;-75
2022/03/12 10:47:53;;;;;;;6.50;4.13;;;8.40;46.80;;;;;;4935150;29;20506;-74
2022/03/12 10:50:25;;;;;;;10.10;5.50;;;8.30;46.40;;;;;;4932851;29;20440;-74
2022/03/12 10:52:53;;;;;;;11.70;4.50;;;7.60;48.30;;;;;;4915437;29;20444;-74
2022/03/12 10:55:26;;;;;;;9.60;4.80;;;7.60;48.10;;;;;;4927305;29;20878;-74
2022/03/12 10:57:59;;;;;;;9.00;5.07;;;7.60;48.30;;;;;;4935284;29;20428;-74
2022/03/12 11:00:26;;;;;;;4.43;3.40;;;7.90;47.60;;;;;;4918703;29;20487;-74
2022/03/12 11:02:57;;;;;;;8.40;4.37;;;8.00;47.50;;;;;;4935654;29;20443;-76
2022/03/12 11:05:43;;;;;;;11.30;4.00;;;7.80;47.70;;;;;;4918634;29;20822;-74
2022/03/12 11:08:21;;;;;;;6.77;3.47;;;7.60;48.20;;;;;;4935082;29;20419;-74
2022/03/12 11:10:48;;;;;;;10.83;4.93;;;;;;;;;;4935189;29;20974;-75
2022/03/12 11:13:27;;;;;;;10.70;4.77;;;7.80;48.90;;;;;;4909498;29;20507;-75
2022/03/12 11:16:13;;;;;;;8.23;3.83;;;7.30;48.30;;;;;;4926374;29;20490;-75
2022/03/12 11:18:52;;;;;;;6.17;3.03;;;7.20;48.20;;;;;;4930136;29;20511;-75
2022/03/12 11:21:35;;;;;;;11.03;5.33;;;7.50;49.50;;;;;;4904515;29;20516;-75
2022/03/12 11:24:01;;;;;;;9.63;3.80;;;7.40;49.20;;;;;;4916796;29;20428;-76
2022/03/12 11:26:28;;;;;;;9.87;3.60;;;7.40;49.30;;;;;;4916530;29;20444;-76
2022/03/12 11:28:59;;;;;;;6.80;3.10;;;7.30;49.90;;;;;;4915951;29;20415;-74
2022/03/12 11:31:49;;;;;;;4.30;3.13;;;7.70;50.30;;;;;;4916448;29;20477;-75
2022/03/12 11:34:39;;;;;;;20.97;4.07;;;7.70;50.00;;;;;;4899445;29;20467;-74
2022/03/12 11:37:13;;;;;;;8.70;4.70;;;7.50;49.50;;;;;;4916274;29;20419;-77
2022/03/12 11:39:59;;;;;;;6.93;4.10;;;7.30;48.60;;;;;;4898963;29;20416;-76
2022/03/12 11:42:32;;;;;;;11.03;4.93;;;7.00;49.60;;;;;;4915772;29;21002;-75
2022/03/12 11:45:00;;;;;;;7.83;4.43;;;7.30;49.00;;;;;;4926526;29;20431;-74
2022/03/12 11:47:31;;;;;;;8.50;4.33;;;7.30;49.00;;;;;;4930381;29;20427;-77
2022/03/12 11:49:58;;;;;;;7.30;4.10;;;7.40;49.00;;;;;;4935094;29;20820;-77
2022/03/12 11:52:24;;;;;;;15.17;8.60;;;7.40;50.70;;;;;;4935176;29;20519;-77
2022/03/12 11:54:54;;;;;;;8.60;4.80;;;8.10;51.30;;;;;;4918277;29;20513;-77
2022/03/12 11:57:38;;;;;;;6.03;3.47;;;8.00;50.50;;;;;;4935184;29;20423;-77
2022/03/12 12:00:11;;;;;;;5.40;2.83;;;8.00;50.80;;;;;;4934713;29;20498;-78
2022/03/12 12:02:37;;;;;;;6.50;2.97;;;7.70;49.30;;;;;;4935660;29;20388;-77
2022/03/12 12:05:11;;;;;;;19.87;4.23;;;7.30;49.10;;;;;;4918271;29;20427;-78
2022/03/12 12:07:38;;;;;;;3.77;2.90;;;7.50;49.90;;;;;;4935589;29;20941;-79
2022/03/12 12:10:08;;;;;;;6.13;4.00;;;7.50;49.00;;;;;;4918605;29;20459;-79
2022/03/12 12:12:34;;;;;;;5.63;4.13;;;8.20;50.10;;;;;;4920050;29;20434;-78
2022/03/12 12:15:04;;;;;;;9.50;3.87;;;8.00;48.70;;;;;;4937371;29;20467;-79
2022/03/12 12:17:31;;;;;;;6.73;3.60;;;8.10;49.90;;;;;;4937194;29;20412;-77
2022/03/12 12:19:57;;;;;;;4.90;3.07;;;8.00;49.50;;;;;;4934218;29;20463;-78
2022/03/12 12:22:23;;;;;;;6.57;4.57;;;7.90;48.90;;;;;;4916062;29;20864;-78
2022/03/12 12:24:52;;;;;;;6.43;3.77;;;8.20;49.70;;;;;;4901678;29;20421;-77
2022/03/12 12:27:23;;;;;;;5.10;3.80;;;8.20;48.90;;;;;;4905701;29;20432;-77
2022/03/12 12:29:56;;;;;;;4.70;3.63;;;8.30;48.80;;;;;;4908926;29;20423;-75
2022/03/12 12:32:26;;;;;;;7.60;4.43;;;8.40;49.60;;;;;;4938867;29;20435;-77
2022/03/12 12:35:04;;;;;;;5.20;3.97;;;8.20;48.50;;;;;;4923090;29;20485;-77
2022/03/12 12:37:53;;;;;;;6.57;3.80;;;8.20;48.70;;;;;;4939463;29;20403;-76
2022/03/12 12:40:44;;;;;;;6.83;3.73;;;8.50;49.90;;;;;;4911829;29;20407;-78
2022/03/12 12:43:13;;;;;;;6.13;4.70;;;8.10;48.70;;;;;;4938140;29;20407;-74
2022/03/12 12:45:54;;;;;;;7.13;3.20;;;8.40;49.40;;;;;;4921168;29;20434;-74
2022/03/12 12:48:32;;;;;;;7.23;3.20;;;8.50;50.20;;;;;;4937596;29;20457;-74
2022/03/12 12:51:11;;;;;;;4.07;2.40;;;8.40;48.40;;;;;;4938093;29;20518;-74
2022/03/12 12:53:38;;;;;;;4.83;2.83;;;8.30;49.10;;;;;;4938078;29;20847;-74
2022/03/12 12:56:25;;;;;;;7.30;3.90;;;8.30;50.10;;;;;;4937689;29;20960;-74
2022/03/12 12:58:53;;;;;;;4.83;3.07;;;8.10;49.50;;;;;;4936554;29;20430;-75
2022/03/12 13:01:28;;;;;;;3.40;2.70;;;7.90;49.50;;;;;;4933417;29;20443;-74
2022/03/12 13:03:54;;;;;;;13.80;3.30;;;7.90;49.20;;;;;;4937537;29;20448;-74
2022/03/12 13:06:35;;;;;;;13.03;3.03;;;8.00;49.80;;;;;;4909720;29;20424;-75
2022/03/12 13:09:08;;;;;;;7.83;3.50;;;7.80;49.40;;;;;;4917994;29;20392;-74
2022/03/12 13:11:35;;;;;;;7.50;3.80;;;8.00;49.80;;;;;;4918735;29;20946;-74
2022/03/12 13:14:07;;;;;;;8.60;3.03;;;8.30;50.30;;;;;;4901601;29;20942;-74
2022/03/12 13:16:53;;;;;;;5.03;3.30;;;8.40;49.20;;;;;;4918573;29;20401;-75
2022/03/12 13:19:30;;;;;;;8.13;4.30;;;8.00;48.60;;;;;;4917839;29;20408;-73
2022/03/12 13:22:01;;;;;;;4.50;3.47;;;8.20;50.10;;;;;;4918473;29;20460;-73
2022/03/12 13:24:30;;;;;;;6.00;3.97;;;8.10;50.10;;;;;;4918347;29;20781;-73
2022/03/12 13:27:00;;;;;;;10.10;2.83;;;8.20;49.30;;;;;;4922707;29;20980;-73
2022/03/12 13:29:26;;;;;;;5.43;3.10;;;8.30;48.60;;;;;;4936840;29;20420;-73
2022/03/12 13:31:54;;;;;;;7.13;3.00;;;8.00;48.80;;;;;;4937368;29;20459;-73
2022/03/12 13:34:20;;;;;;;6.03;3.30;;;8.30;48.70;;;;;;4936997;29;20502;-73
2022/03/12 13:36:55;;;;;;;4.80;3.00;;;8.20;49.10;;;;;;4931139;29;20442;-73
2022/03/12 13:39:22;;;;;;;3.00;2.13;;;8.40;49.20;;;;;;4912638;29;20411;-73
2022/03/12 13:41:49;;;;;;;4.60;2.50;;;8.50;48.40;;;;;;4937198;29;20436;-73
2022/03/12 13:44:19;;;;;;;3.63;3.13;;;8.30;48.20;;;;;;4938040;29;20416;-75
2022/03/12 13:46:47;;;;;;;8.30;3.50;;;8.20;48.10;;;;;;4937547;29;20482;-76
2022/03/12 13:49:16;;;;;;;4.97;3.50;;;8.00;48.20;;;;;;4939252;29;20920;-75
2022/03/12 13:51:56;;;;;;;4.60;2.87;;;8.20;48.90;;;;;;4920245;29;20503;-74
2022/03/12 13:54:24;;;;;;;7.20;2.87;;;8.30;48.40;;;;;;4920155;29;20458;-75
2022/03/12 13:56:50;;;;;;;4.20;2.50;;;8.70;49.00;;;;;;4937404;29;20516;-75
2022/03/12 13:59:29;;;;;;;8.70;3.80;;;8.50;47.80;;;;;;4937059;29;20464;-75
2022/03/12 14:58:00;;;;;;;8.53;3.27;;;8.30;47.90;;;;;;4992531;23;20490;-74
2022/03/12 15:00:27;;;;;;;5.20;3.57;;;8.10;47.30;;;;;;4935379;29;20406;-74
2022/03/12 15:03:07;;;;;;;4.90;3.10;;;7.90;48.10;;;;;;4936194;29;20594;-74
2022/03/12 15:05:36;;;;;;;4.33;2.40;;;7.90;48.50;;;;;;4935685;29;20776;-74
2022/03/12 15:08:03;;;;;;;5.60;3.97;;;8.10;48.60;;;;;;4935384;29;20921;-75
2022/03/12 15:26:08;;;;;;;7.60;3.30;;;7.80;47.90;;;;;;5714935;23;20557;-73
2022/03/12 15:28:35;;;;;;;6.33;3.60;;;7.60;48.80;;;;;;4934862;29;20454;-74
2022/03/12 15:31:08;;;;;;;4.73;3.93;;;7.70;49.20;;;;;;4934902;29;20431;-73
2022/03/12 15:33:36;;;;;;;5.10;3.20;;;7.80;49.20;;;;;;4934941;29;20408;-75
2022/03/12 15:36:16;;;;;;;4.47;3.57;;;7.80;48.30;;;;;;4934797;29;20451;-75
2022/03/12 15:38:49;;;;;;;3.80;2.80;;;7.70;48.30;;;;;;4935574;29;20506;-75
2022/03/12 15:41:19;;;;;;;6.43;3.10;;;7.40;48.00;;;;;;5204313;23;20484;-73
2022/03/12 15:43:47;;;;;;;2.87;2.57;;;7.30;48.80;;;;;;4934869;29;20459;-74
2022/03/12 15:46:12;;;;;;;4.40;2.80;;;7.20;48.70;;;;;;4934780;29;20407;-74
2022/03/12 15:48:39;;;;;;;8.47;3.03;;;7.20;49.00;;;;;;4934572;29;20887;-74
2022/03/12 15:51:08;;;;;;;6.70;3.80;;;7.20;49.10;;;;;;4934761;29;20191;-74
2022/03/12 15:53:34;;;;;;;5.50;3.43;;;7.10;49.20;;;;;;4934791;29;20419;-74
2022/03/12 15:55:59;;;;;;;5.70;3.90;;;7.00;49.40;;;;;;4934630;29;20474;-74
2022/03/12 15:58:25;;;;;;;9.77;4.07;;;6.90;50.00;;;;;;4934411;29;20403;-74
2022/03/12 16:00:54;;;;;;;4.90;3.20;;;6.90;49.70;;;;;;4933954;29;20282;-75
2022/03/12 16:03:20;;;;;;;8.23;3.00;;;7.00;49.90;;;;;;4917398;29;20179;-74
2022/03/12 16:05:46;;;;;;;8.10;4.37;;;6.70;49.70;;;;;;4934539;29;20464;-74
2022/03/12 16:08:12;;;;;;;10.93;3.70;;;6.90;50.30;;;;;;4934627;29;20420;-74
2022/03/12 16:10:39;;;;;;;12.13;6.27;;;6.70;50.10;;;;;;4934279;29;20195;-75
2022/03/12 16:13:04;;;;;;;11.20;4.07;;;6.70;50.60;;;;;;4934635;29;20206;-75
2022/03/12 16:15:30;;;;;;;3.90;3.13;;;6.50;51.10;;;;;;4917355;29;20479;-74
2022/03/12 16:18:02;;;;;;;4.53;3.03;;;6.40;50.80;;;;;;4934446;29;20178;-74
2022/03/12 16:20:29;;;;;;;4.40;3.30;;;6.30;51.20;;;;;;4934429;29;20180;-74
2022/03/12 16:22:58;;;;;;;7.37;4.37;;;6.30;51.80;;;;;;4934582;29;20400;-75
2022/03/12 16:25:26;;;;;;;6.60;4.90;;;6.00;52.00;;;;;;4934503;29;20418;-74
2022/03/12 16:27:51;;;;;;;7.17;3.63;;;5.90;52.20;;;;;;4934094;29;20470;-74
2022/03/12 16:30:21;;;;;;;6.50;3.30;;;5.80;52.90;;;;;;4934211;29;20811;-74
2022/03/12 16:32:47;;;;;;;8.03;3.23;;;5.70;52.80;;;;;;4917282;29;20176;-74
2022/03/12 16:35:18;;;;;;;4.90;3.17;;;5.60;53.00;;;;;;4934177;29;20470;-75
2022/03/12 16:37:45;;;;;;;8.57;4.50;;;5.60;52.80;;;;;;4934063;29;20811;-75
2022/03/12 16:40:12;;;;;;;5.87;3.70;;;5.50;52.80;;;;;;4934079;29;20416;-74
2022/03/12 16:42:38;;;;;;;5.00;3.10;;;5.50;52.80;;;;;;4934133;29;20755;-74
2022/03/12 16:45:09;;;;;;;5.30;3.80;;;5.50;52.50;;;;;;4917225;29;20494;-73
2022/03/12 16:47:34;;;;;;;4.50;3.00;;;5.40;52.80;;;;;;4933892;29;20407;-73
2022/03/12 16:50:00;;;;;;;6.23;3.33;;;5.40;53.10;;;;;;4934305;29;20417;-73
2022/03/12 16:52:27;;;;;;;9.30;4.30;;;5.30;53.50;;;;;;4934089;29;20199;-73
2022/03/12 16:54:53;;;;;;;7.50;3.50;;;5.20;53.30;;;;;;4917040;29;20465;-73
2022/03/12 16:57:21;;;;;;;6.83;4.70;;;5.20;53.70;;;;;;4916843;29;20420;-73
2022/03/12 16:59:47;;;;;;;6.50;3.93;;;5.00;54.20;;;;;;4933734;29;20264;-73
2022/03/12 17:02:13;;;;;;;10.50;4.00;;;5.00;54.10;;;;;;4934063;29;20463;-73
2022/03/12 17:04:39;;;;;;;6.70;4.70;;;4.80;55.20;;;;;;4933961;29;20446;-73
2022/03/12 17:07:05;;;;;;;6.23;3.27;;;4.70;54.80;;;;;;4917081;29;20215;-73
2022/03/12 17:09:31;;;;;;;5.23;3.17;;;4.80;54.70;;;;;;4916650;29;20646;-74
2022/03/12 17:12:00;;;;;;;10.47;4.87;;;4.80;54.70;;;;;;4934728;29;20524;-73
2022/03/12 17:14:30;;;;;;;4.00;3.07;;;4.70;54.90;;;;;;4937432;29;20203;-73
2022/03/12 17:16:57;;;;;;;9.83;3.33;;;4.60;55.20;;;;;;4937510;29;20921;-73
2022/03/12 17:19:27;;;;;;;6.67;4.37;;;4.50;55.40;;;;;;4937274;29;20529;-73
2022/03/12 17:21:56;;;;;;;5.50;3.03;;;4.40;55.90;;;;;;4937289;29;20495;-73
2022/03/12 17:24:23;;;;;;;5.30;2.70;;;4.50;55.40;;;;;;4937326;29;20902;-74
2022/03/12 17:26:54;;;;;;;4.40;2.70;;;4.30;56.00;;;;;;4937295;29;20968;-73
2022/03/12 17:29:20;;;;;;;7.70;3.77;;;4.30;56.50;;;;;;4937108;29;20815;-74
2022/03/12 17:31:46;;;;;;;9.03;3.87;;;4.30;56.20;;;;;;4937361;29;20431;-74
2022/03/12 17:34:12;;;;;;;5.13;3.30;;;4.30;56.00;;;;;;4920015;29;20416;-73
2022/03/12 17:36:45;;;;;;;13.10;4.30;;;4.20;56.50;;;;;;4937007;29;20486;-73
2022/03/12 17:39:18;;;;;;;7.40;3.80;;;4.10;56.60;;;;;;4936826;29;20415;-74
2022/03/12 17:41:46;;;;;;;7.60;3.70;;;4.00;57.00;;;;;;4936713;29;20503;-74
2022/03/12 17:44:16;;;;;;;3.13;2.13;;;4.00;56.80;;;;;;4919839;29;20430;-75
2022/03/12 17:46:42;;;;;;;6.60;3.80;;;4.00;56.80;;;;;;4936958;29;20416;-73
2022/03/12 17:49:10;;;;;;;10.10;3.53;;;4.00;56.70;;;;;;4936691;29;20510;-75
2022/03/12 17:51:37;;;;;;;5.17;3.17;;;4.00;56.60;;;;;;4936779;29;20435;-74
2022/03/12 17:54:03;;;;;;;15.13;8.03;;;4.00;56.50;;;;;;4936920;29;20467;-73
2022/03/12 17:56:28;;;;;;;5.97;4.40;;;3.80;57.00;;;;;;4919645;29;20535;-74
2022/03/12 17:58:55;;;;;;;9.77;5.70;;;3.80;57.00;;;;;;4936445;29;20178;-74
2022/03/12 18:01:29;;;;;;;7.00;4.47;;;3.90;56.80;;;;;;4936802;29;20198;-74
2022/03/12 18:03:56;;;;;;;6.63;4.30;;;3.80;56.70;;;;;;4936791;29;20412;-73
2022/03/12 18:06:23;;;;;;;11.67;5.80;;;3.80;56.60;;;;;;4936943;29;20434;-74
2022/03/12 18:08:49;;;;;;;6.20;4.00;;;3.70;56.90;;;;;;4936419;29;20935;-74
2022/03/12 18:11:17;;;;;;;6.20;4.27;;;3.80;56.50;;;;;;4936714;29;20487;-74
2022/03/12 18:13:49;;;;;;;16.43;10.70;;;3.70;56.60;;;;;;4919885;29;20842;-74
2022/03/12 18:16:16;;;;;;;5.30;3.73;;;3.70;56.90;;;;;;4936414;29;20495;-74
2022/03/12 18:18:43;;;;;;;5.90;3.10;;;3.70;56.30;;;;;;4936441;29;20422;-74
2022/03/12 18:21:09;;;;;;;13.83;5.20;;;3.60;56.60;;;;;;4919332;29;20972;-74
2022/03/12 18:23:36;;;;;;;6.87;2.77;;;3.60;56.70;;;;;;4936008;29;20415;-73
2022/03/12 18:26:02;;;;;;;5.57;3.40;;;3.70;56.10;;;;;;4936412;29;20714;-74
2022/03/12 18:28:28;;;;;;;7.57;4.37;;;3.50;56.70;;;;;;4936163;29;20407;-73
2022/03/12 18:30:53;;;;;;;5.60;4.07;;;3.50;56.80;;;;;;4936233;29;20964;-74
2022/03/12 18:33:19;;;;;;;6.40;4.00;;;3.50;56.60;;;;;;4919220;29;20190;-74
2022/03/12 18:35:46;;;;;;;6.07;4.03;;;3.50;56.60;;;;;;4936214;29;20209;-73
2022/03/12 18:38:12;;;;;;;7.20;3.07;;;3.40;56.50;;;;;;4918908;29;20210;-74
2022/03/12 18:40:42;;;;;;;8.10;4.50;;;3.40;56.10;;;;;;4936047;29;20463;-74
2022/03/12 18:43:15;;;;;;;6.53;4.07;;;3.50;55.90;;;;;;4936175;29;20900;-74
2022/03/12 18:45:48;;;;;;;7.07;3.70;;;3.40;55.90;;;;;;4919012;29;20515;-74
2022/03/12 18:48:15;;;;;;;6.60;3.17;;;3.50;55.60;;;;;;4935863;29;20468;-74
2022/03/12 18:50:42;;;;;;;9.80;3.03;;;3.50;55.60;;;;;;4935984;29;20522;-73
2022/03/12 18:53:08;;;;;;;3.53;3.00;;;3.50;55.00;;;;;;4935910;29;20463;-74
2022/03/12 18:55:34;;;;;;;5.17;3.90;;;3.50;55.30;;;;;;4935776;29;20451;-74
2022/03/12 18:58:00;;;;;;;7.00;2.90;;;3.50;55.30;;;;;;4935474;29;20191;-74
2022/03/12 19:00:27;;;;;;;7.17;3.00;;;3.50;55.00;;;;;;4935752;29;20494;-74